Partridge, KY (40862)

8:52 AM EDT on April 27, 2015 (GMT -0400)
KYTC_RWIS | | Change Station
CLOSE
Current Station
Personal Weather Station
Location: Eolia, KY
Elevation: 2612 ft
Nearby Weather Stations
Active Advisory: Special Statement Active Notice: Local Storm Report

Elev 2612 ft 37.08 °N, 82.81 °W | Updated 42 minutes ago

Mostly Cloudy
Mostly Cloudy
37 °F
Feels Like 37 °F
N
2
Wind Variable Wind from NE
Gusts 0.0 mph

Today
High -- | Low -- °F
--% Chance of Precip.
Yesterday
High -- | Low -- °F
Precip. -- in
6:42 AM 8:16 PM
Waxing Gibbous, 64% visible
Pressure 29.92 in
Visibility 10.0 miles
Clouds Scattered Clouds 4400 ft
Windchill 37 °F
Dew Point 32 °F
Humidity 82%
Rainfall in
Snow Depth Not available.
UV 1 out of 12
Pollen 6.40 out of 12
Air Quality Not available.
Flu Activity Local Activity
METAR KLNP 271235Z AUTO 35008KT 10SM SCT044 06/00 A2992 RMK AO2

More Conditions Fewer Conditions

Pressure 29.92 in
Visibility 10.0 miles
Clouds Scattered Clouds 4400 ft
Windchill 37 °F
Dew Point 32 °F
Humidity 82%
Rainfall in
Snow Depth Not available.
UV 1 out of 12
Pollen 6.40 out of 12
Air Quality Not available.
Flu Activity Local Activity
METAR KLNP 271235Z AUTO 35008KT 10SM SCT044 06/00 A2992 RMK AO2

More Conditions Fewer Conditions

10-Day Weather Forecast

Almanac

Astronomy

Apr. 27, 2015 Rise Set
Actual Time
Civil Twilight
Nautical Twilight
Astronomical Twilight
Moon
Length of Visible Light
Length of Day
Tomorrow will be .
, % of the Moon is Illuminated

Today's Extremes

State Highs State Lows

Community

WunderPhotos

Upload Photos

1,817,292 photos uploaded!

WunderBlogs® & News

Nearby

Air Quality

  Air Quality AQ Index Pollutant
Not available.

Snow Depth

Station Depth Elevation

Earthquake Activity

City Distance Mag. Time & Date
Minimum magnitude displayed is 2.5.

Coastal Water Temperatures

Place Temperature

Stations

Nearby Weather Stations

Station Location Temp. Windchill Dew Point Humidity Wind Precip. Elev Updated Type
                   
Special Statement
Statement as of 7:43 AM EDT on April 27, 2015

... Locally dense fog early this morning...

Valley fog will affect portions of the area early this morning.
It will reduce visibility to less than a quarter mile in some
locations. Motorists should use caution during the morning
commute. The fog should dissipate by around 9 am.


AR/hal